createdAt,value
2024-01-01T00:02:20.134Z,38.13
2024-01-01T00:04:48.618Z,37.95
2024-01-01T00:07:16.879Z,40.60
2024-01-01T00:09:45.042Z,41.03
2024-01-01T00:12:14.541Z,44.03
2024-01-01T00:14:43.010Z,43.05
2024-01-01T00:17:11.241Z,43.63
2024-01-01T00:19:39.880Z,44.07
2024-01-01T00:22:08.267Z,43.50
2024-01-01T00:24:36.433Z,43.47
2024-01-01T00:27:04.883Z,42.60
2024-01-01T00:29:37.405Z,41.43
2024-01-01T00:32:07.863Z,42.77
2024-01-01T00:34:36.313Z,42.42
2024-01-01T00:37:04.540Z,42.07
2024-01-01T00:39:32.968Z,39.63
2024-01-01T00:42:01.098Z,43.33
2024-01-01T00:44:29.260Z,41.08
2024-01-01T00:46:59.567Z,39.03
2024-01-01T00:49:27.991Z,39.03
2024-01-01T00:51:56.185Z,39.47
2024-01-01T00:54:25.604Z,38.40
2024-01-01T00:56:55.501Z,39.58
2024-01-01T00:59:26.228Z,36.47
2024-01-01T01:01:54.859Z,36.28
2024-01-01T01:04:24.422Z,36.33
2024-01-01T01:06:53.894Z,37.83
2024-01-01T01:09:22.199Z,35.47
2024-01-01T01:11:50.719Z,34.72
2024-01-01T01:14:18.817Z,35.50
2024-01-01T01:16:47.320Z,34.35
2024-01-01T01:19:15.649Z,34.93
2024-01-01T01:21:45.239Z,34.43
2024-01-01T01:24:16.918Z,33.00
2024-01-01T01:26:45.357Z,33.13
2024-01-01T01:29:13.727Z,32.40
2024-01-01T01:31:43.495Z,33.27
2024-01-01T01:34:12.002Z,33.00
2024-01-01T01:36:40.160Z,31.73
2024-01-01T01:39:10.880Z,32.33
2024-01-01T01:41:39.611Z,30.63
2024-01-01T01:44:08.051Z,30.93
2024-01-01T01:46:37.093Z,29.60
2024-01-01T01:49:05.444Z,28.47
2024-01-01T01:51:33.939Z,31.80
2024-01-01T01:54:02.548Z,29.33
2024-01-01T01:56:32.264Z,28.20
2024-01-01T01:59:04.442Z,27.90
2024-01-01T02:01:33.193Z,30.03
2024-01-01T02:04:01.381Z,29.63
2024-01-01T02:06:31.752Z,29.77
2024-01-01T02:09:01.172Z,30.37
2024-01-01T02:11:29.471Z,31.03
2024-01-01T02:14:10.748Z,30.00
2024-01-01T02:16:39.343Z,31.57
2024-01-01T02:19:17.446Z,30.63
2024-01-01T02:21:45.736Z,30.40
2024-01-01T02:24:16.999Z,29.27
2024-01-01T02:26:45.382Z,29.73
2024-01-01T02:29:14.156Z,28.43
2024-01-01T02:31:42.690Z,28.23
2024-01-01T02:34:10.833Z,28.60
2024-01-01T02:36:40.846Z,27.77
2024-01-01T02:39:11.383Z,27.60
2024-01-01T02:41:41.561Z,26.02
2024-01-01T02:44:10.016Z,28.23
2024-01-01T02:46:38.270Z,28.57
2024-01-01T02:49:06.882Z,27.92
2024-01-01T02:51:35.108Z,28.02
2024-01-01T02:54:03.353Z,26.05
2024-01-01T02:56:31.507Z,27.85
2024-01-01T02:59:00.946Z,27.27
2024-01-01T03:01:29.098Z,26.30
2024-01-01T03:03:57.673Z,27.38
2024-01-01T03:06:26.521Z,26.63
2024-01-01T03:08:54.736Z,26.20
2024-01-01T03:11:22.880Z,25.93
2024-01-01T03:13:51.014Z,26.27
2024-01-01T03:16:20.490Z,27.80
2024-01-01T03:18:48.620Z,25.77
2024-01-01T03:21:17.566Z,26.00
2024-01-01T03:23:46.962Z,25.93
2024-01-01T03:26:15.547Z,25.30
2024-01-01T03:28:43.934Z,24.57
2024-01-01T03:31:12.180Z,24.73
2024-01-01T03:33:41.665Z,24.00
2024-01-01T03:36:10.741Z,24.93
2024-01-01T03:38:39.092Z,23.87
2024-01-01T03:41:07.315Z,23.47
2024-01-01T03:43:35.532Z,25.53
2024-01-01T03:46:03.699Z,24.60
2024-01-01T03:48:31.958Z,24.90
2024-01-01T03:51:01.525Z,24.77
2024-01-01T03:53:29.642Z,24.50
2024-01-01T03:55:58.030Z,23.55
2024-01-01T03:58:26.556Z,23.10
2024-01-01T04:00:54.723Z,23.53
2024-01-01T04:03:22.839Z,24.67
2024-01-01T04:05:51.201Z,22.93
2024-01-01T04:08:20.850Z,25.20
2024-01-01T04:10:49.416Z,24.70
2024-01-01T04:13:17.656Z,23.63
2024-01-01T04:15:45.797Z,25.43
2024-01-01T04:18:14.169Z,24.27
2024-01-01T04:20:42.400Z,25.60
2024-01-01T04:23:10.506Z,24.77
2024-01-01T04:25:40.097Z,25.67
2024-01-01T04:28:08.676Z,24.17
2024-01-01T04:30:36.992Z,23.73
2024-01-01T04:33:05.706Z,25.00
2024-01-01T04:35:34.592Z,23.97
2024-01-01T04:38:02.996Z,22.83
2024-01-01T04:40:31.256Z,23.83
2024-01-01T04:43:01.071Z,23.43
2024-01-01T04:45:29.326Z,23.10
2024-01-01T04:47:57.739Z,24.00
2024-01-01T04:50:25.904Z,24.02
2024-01-01T04:52:54.122Z,24.03
2024-01-01T04:55:22.503Z,24.30
2024-01-01T04:57:50.646Z,23.43
2024-01-01T05:00:20.263Z,23.00
2024-01-01T05:02:48.662Z,23.85
2024-01-01T05:05:17.412Z,22.90
2024-01-01T05:07:46.446Z,22.70
2024-01-01T05:10:14.645Z,22.60
2024-01-01T05:12:45.193Z,22.58
2024-01-01T05:15:14.081Z,22.85
2024-01-01T05:17:43.757Z,20.80
2024-01-01T05:20:12.458Z,21.73
2024-01-01T05:22:41.876Z,23.30
2024-01-01T05:25:10.571Z,24.20
2024-01-01T05:27:38.684Z,22.27
2024-01-01T05:30:08.144Z,21.73
2024-01-01T05:32:36.422Z,21.98
2024-01-01T05:35:07.478Z,22.65
2024-01-01T05:37:35.709Z,22.77
2024-01-01T05:40:04.034Z,21.70
2024-01-01T05:42:33.333Z,23.30
2024-01-01T05:45:01.474Z,22.55
2024-01-01T05:47:29.625Z,22.65
2024-01-01T05:49:57.892Z,22.35
2024-01-01T05:52:27.550Z,23.15
2024-01-01T05:54:55.785Z,22.50
2024-01-01T05:57:23.989Z,22.67
2024-01-01T05:59:52.184Z,25.48
2024-01-01T06:02:20.356Z,23.42
2024-01-01T06:04:48.483Z,24.48
2024-01-01T06:07:16.640Z,25.58
2024-01-01T06:09:46.203Z,26.40
2024-01-01T06:12:14.401Z,25.67
2024-01-01T06:14:42.465Z,26.88
2024-01-01T06:17:10.833Z,24.58
2024-01-01T06:19:39.035Z,25.88
2024-01-01T06:22:07.109Z,26.33
2024-01-01T06:24:35.277Z,26.70
2024-01-01T06:27:05.172Z,25.00
2024-01-01T06:29:33.391Z,26.25
2024-01-01T06:32:01.568Z,26.33
2024-01-01T06:34:29.786Z,25.58
2024-01-01T06:36:58.161Z,25.70
2024-01-01T06:39:26.317Z,27.33
2024-01-01T06:41:54.549Z,26.38
2024-01-01T06:44:26.677Z,26.40
2024-01-01T06:46:55.128Z,27.98
2024-01-01T06:49:23.363Z,28.08
2024-01-01T06:51:52.538Z,27.30
2024-01-01T06:54:20.694Z,27.17
2024-01-01T06:56:48.922Z,28.35
2024-01-01T06:59:19.383Z,27.70
2024-01-01T07:01:48.997Z,28.05
2024-01-01T07:04:17.180Z,26.98
2024-01-01T07:06:46.383Z,26.93
2024-01-01T07:09:14.710Z,27.50
2024-01-01T07:11:42.961Z,27.40
2024-01-01T07:14:11.186Z,26.90
2024-01-01T07:16:39.530Z,26.23
2024-01-01T07:19:09.156Z,26.17
2024-01-01T07:21:37.399Z,26.60
2024-01-01T07:24:06.407Z,26.50
2024-01-01T07:26:34.597Z,29.27
2024-01-01T07:29:04.084Z,28.90
2024-01-01T07:31:32.229Z,27.88
2024-01-01T07:34:00.389Z,27.08
2024-01-01T07:36:30.470Z,28.85
2024-01-01T07:38:58.552Z,29.00
2024-01-01T07:41:26.844Z,28.77
2024-01-01T07:43:55.133Z,28.85
2024-01-01T07:46:23.290Z,27.05
2024-01-01T07:48:51.954Z,27.83
2024-01-01T07:51:20.280Z,27.37
2024-01-01T07:53:51.331Z,29.25
2024-01-01T07:56:19.649Z,28.05
2024-01-01T07:58:47.905Z,28.17
2024-01-01T08:01:18.674Z,28.13
2024-01-01T08:03:46.915Z,30.40
2024-01-01T08:06:15.215Z,29.10
2024-01-01T08:08:43.382Z,28.02
2024-01-01T08:11:12.876Z,27.75
2024-01-01T08:13:41.023Z,29.00
2024-01-01T08:16:09.361Z,28.92
2024-01-01T08:18:37.518Z,28.42
2024-01-01T08:21:05.986Z,28.17
2024-01-01T08:23:34.344Z,28.30
2024-01-01T08:26:03.503Z,29.13
2024-01-01T08:28:33.581Z,27.38
2024-01-01T08:31:01.912Z,28.23
2024-01-01T08:33:30.248Z,28.77
2024-01-01T08:35:58.523Z,28.73
2024-01-01T08:38:27.087Z,29.60
2024-01-01T08:40:55.811Z,27.35
2024-01-01T08:43:23.970Z,27.02
2024-01-01T08:45:53.433Z,27.15
2024-01-01T08:48:21.768Z,27.90
2024-01-01T08:50:49.952Z,27.85
2024-01-01T08:53:18.052Z,28.35
2024-01-01T08:55:46.556Z,26.17
2024-01-01T08:58:14.649Z,28.38
2024-01-01T09:00:42.843Z,27.95
2024-01-01T09:03:12.460Z,26.73
2024-01-01T09:05:40.772Z,27.65
2024-01-01T09:08:09.446Z,26.27
2024-01-01T09:10:37.974Z,27.45
2024-01-01T09:13:06.436Z,27.17
2024-01-01T09:15:34.591Z,27.77
2024-01-01T09:18:03.106Z,26.52
2024-01-01T09:20:33.086Z,27.20
2024-01-01T09:23:01.321Z,25.75
2024-01-01T09:25:30.145Z,25.08
2024-01-01T09:27:58.230Z,26.63
2024-01-01T09:30:26.597Z,26.67
2024-01-01T09:32:54.832Z,26.23
2024-01-01T09:35:23.065Z,25.52
2024-01-01T09:37:55.072Z,25.02
2024-01-01T09:40:23.405Z,26.33
2024-01-01T09:42:52.066Z,26.00
2024-01-01T09:45:21.371Z,25.17
2024-01-01T09:47:49.646Z,25.85
2024-01-01T09:50:19.427Z,25.67
2024-01-01T09:52:47.961Z,25.27
2024-01-01T09:55:17.565Z,25.38
2024-01-01T09:57:45.654Z,24.10
2024-01-01T10:00:23.628Z,25.10
2024-01-01T10:02:52.357Z,23.38
2024-01-01T10:05:20.589Z,24.00
2024-01-01T10:07:50.062Z,23.67
2024-01-01T10:10:29.688Z,24.20
2024-01-01T10:13:09.387Z,23.48
2024-01-01T10:15:40.976Z,22.50
2024-01-01T10:18:11.524Z,22.50
2024-01-01T10:20:40.405Z,23.75
2024-01-01T10:23:28.378Z,22.27
2024-01-01T10:26:08.935Z,22.48
2024-01-01T10:28:37.266Z,22.08
2024-01-01T10:31:05.730Z,22.75
2024-01-01T10:33:35.600Z,23.05
2024-01-01T10:36:04.964Z,22.42
2024-01-01T10:38:33.605Z,23.10
2024-01-01T10:41:03.659Z,22.85
2024-01-01T10:43:33.451Z,23.23
2024-01-01T10:46:05.169Z,21.20
2024-01-01T10:48:34.620Z,20.88
2024-01-01T10:51:34.519Z,21.65
2024-01-01T10:54:15.640Z,20.35
2024-01-01T10:56:53.007Z,19.67
2024-01-01T10:59:23.555Z,20.65
2024-01-01T11:01:54.616Z,21.35
2024-01-01T11:04:23.286Z,21.20
2024-01-01T11:06:51.607Z,20.98
2024-01-01T11:09:33.075Z,21.67
2024-01-01T11:12:03.442Z,21.50
2024-01-01T11:14:35.653Z,22.02
2024-01-01T11:17:08.224Z,20.67
2024-01-01T11:19:42.654Z,20.92
2024-01-01T11:22:31.741Z,22.27
2024-01-01T11:25:01.989Z,22.25
2024-01-01T11:27:32.930Z,22.05
2024-01-01T11:30:07.439Z,23.15
2024-01-01T11:32:38.222Z,21.77
2024-01-01T11:35:11.686Z,22.35
2024-01-01T11:37:44.064Z,22.97
2024-01-01T11:40:13.695Z,22.65
2024-01-01T11:42:43.007Z,23.52
2024-01-01T11:45:14.360Z,22.20
2024-01-01T11:47:43.229Z,22.33
2024-01-01T11:50:13.322Z,23.23
2024-01-01T11:52:43.069Z,22.40
2024-01-01T11:55:11.693Z,22.58
2024-01-01T11:57:43.604Z,23.55
2024-01-01T12:00:14.679Z,23.52
2024-01-01T12:02:43.200Z,22.40
2024-01-01T12:05:11.548Z,23.25
2024-01-01T12:07:39.811Z,22.70
2024-01-01T12:10:09.918Z,22.45
2024-01-01T12:12:39.380Z,23.48
2024-01-01T12:15:10.386Z,23.77
2024-01-01T12:17:44.641Z,23.63
2024-01-01T12:20:16.894Z,22.65
2024-01-01T12:22:45.878Z,23.40
2024-01-01T12:25:18.116Z,21.58
2024-01-01T12:28:01.429Z,23.33
2024-01-01T12:30:31.387Z,22.23
2024-01-01T12:33:01.716Z,22.13
2024-01-01T12:35:30.258Z,24.20
2024-01-01T12:37:58.699Z,22.20
2024-01-01T12:40:29.899Z,22.08
2024-01-01T12:42:59.469Z,22.00
2024-01-01T12:45:31.419Z,21.58
2024-01-01T12:48:02.000Z,21.70
2024-01-01T12:50:30.538Z,23.93
2024-01-01T12:52:59.331Z,22.37
2024-01-01T12:55:27.661Z,23.03
2024-01-01T12:57:55.783Z,21.07
2024-01-01T13:00:23.993Z,21.83
2024-01-01T13:02:52.294Z,21.88
2024-01-01T13:05:22.415Z,21.98
2024-01-01T13:07:50.769Z,21.47
2024-01-01T13:10:19.046Z,20.63
2024-01-01T13:12:47.259Z,20.83
2024-01-01T13:15:15.369Z,19.67
2024-01-01T13:17:46.042Z,17.83
2024-01-01T13:20:14.554Z,18.13
2024-01-01T13:22:44.689Z,18.47
2024-01-01T13:25:13.065Z,18.77
2024-01-01T13:27:41.304Z,18.90
2024-01-01T13:30:10.885Z,18.40
2024-01-01T13:32:40.230Z,18.40
2024-01-01T13:35:09.922Z,17.38
2024-01-01T13:37:39.065Z,18.13
2024-01-01T13:40:10.422Z,18.13
2024-01-01T13:42:38.592Z,19.27
2024-01-01T13:45:09.428Z,18.63
2024-01-01T13:47:37.833Z,17.93
2024-01-01T13:50:07.437Z,17.97
2024-01-01T13:52:37.389Z,17.83
2024-01-01T13:55:07.319Z,19.17
2024-01-01T13:57:38.064Z,19.27
2024-01-01T14:00:09.773Z,18.07
2024-01-01T14:02:39.059Z,18.73
2024-01-01T14:05:08.654Z,19.00
2024-01-01T14:07:37.503Z,18.10
2024-01-01T14:10:06.647Z,18.70
2024-01-01T14:12:36.201Z,18.67
2024-01-01T14:15:04.850Z,19.20
2024-01-01T14:17:33.070Z,19.63
2024-01-01T14:20:01.475Z,19.60
2024-01-01T14:22:31.645Z,20.25
2024-01-01T14:25:00.283Z,21.47
2024-01-01T14:27:28.500Z,19.27
2024-01-01T14:29:58.110Z,19.52
2024-01-01T14:32:28.391Z,21.40
2024-01-01T14:34:56.804Z,21.70
2024-01-01T14:37:25.132Z,22.23
2024-01-01T14:39:53.305Z,22.33
2024-01-01T14:42:21.488Z,22.40
2024-01-01T14:44:50.371Z,22.90
2024-01-01T14:47:20.152Z,22.35
2024-01-01T14:49:49.844Z,23.53
2024-01-01T14:52:18.788Z,23.30
2024-01-01T14:54:47.051Z,23.98
2024-01-01T14:57:15.241Z,23.92
2024-01-01T14:59:44.140Z,23.42
2024-01-01T15:02:13.591Z,23.63
2024-01-01T15:04:46.087Z,24.30
2024-01-01T15:07:14.474Z,24.27
2024-01-01T15:09:42.599Z,24.35
2024-01-01T15:12:11.244Z,23.93
2024-01-01T15:14:39.465Z,24.02
2024-01-01T15:17:07.718Z,24.47
2024-01-01T15:19:37.237Z,24.15
2024-01-01T15:22:06.984Z,24.30
2024-01-01T15:24:35.106Z,24.17
2024-01-01T15:27:05.493Z,24.37
2024-01-01T15:29:34.031Z,26.43
2024-01-01T15:32:02.269Z,27.67
2024-01-01T15:34:32.903Z,28.50
2024-01-01T15:37:01.601Z,27.57
2024-01-01T15:39:31.227Z,29.63
2024-01-01T15:41:59.477Z,30.33
2024-01-01T15:44:30.633Z,30.27
2024-01-01T15:46:58.844Z,31.25
2024-01-01T15:49:27.118Z,30.83
2024-01-01T15:51:55.268Z,31.10
2024-01-01T15:54:23.682Z,31.67
2024-01-01T15:56:53.169Z,33.65
2024-01-01T15:59:21.549Z,31.85
2024-01-01T16:01:50.323Z,34.03
2024-01-01T16:04:18.527Z,35.03
2024-01-01T16:06:46.869Z,34.67
2024-01-01T16:09:15.180Z,36.30
2024-01-01T16:11:43.378Z,36.00
2024-01-01T16:14:12.941Z,35.05
2024-01-01T16:16:41.240Z,39.23
2024-01-01T16:19:17.483Z,36.40
2024-01-01T16:21:52.799Z,37.47
2024-01-01T16:24:21.140Z,39.42
2024-01-01T16:26:49.921Z,41.03
2024-01-01T16:29:19.541Z,39.33
2024-01-01T16:31:47.709Z,40.93
2024-01-01T16:34:16.188Z,40.28
2024-01-01T16:36:46.938Z,39.33
2024-01-01T16:39:16.121Z,40.23
2024-01-01T16:41:44.423Z,39.38
2024-01-01T16:44:12.563Z,40.13
2024-01-01T16:46:42.244Z,40.38
2024-01-01T16:49:11.177Z,40.35
2024-01-01T16:51:39.571Z,38.83
2024-01-01T16:54:07.864Z,38.42
2024-01-01T16:56:36.073Z,39.10
2024-01-01T16:59:04.367Z,38.57
2024-01-01T17:01:32.643Z,38.03
2024-01-01T17:04:02.301Z,39.67
2024-01-01T17:06:30.441Z,38.70
2024-01-01T17:08:58.754Z,39.03
2024-01-01T17:11:27.142Z,36.58
2024-01-01T17:13:55.371Z,39.77
2024-01-01T17:16:23.740Z,37.80
2024-01-01T17:18:52.611Z,39.15
2024-01-01T17:21:22.564Z,39.40
2024-01-01T17:23:50.876Z,39.08
2024-01-01T17:26:19.096Z,39.55
2024-01-01T17:28:47.347Z,37.55
2024-01-01T17:31:15.525Z,39.60
2024-01-01T17:36:14.079Z,39.43
2024-01-01T17:38:43.903Z,40.10
2024-01-01T17:41:12.243Z,41.40
2024-01-01T17:43:40.844Z,39.42
2024-01-01T17:46:09.743Z,40.87
2024-01-01T17:48:38.027Z,38.35
2024-01-01T17:51:10.282Z,36.75
2024-01-01T17:53:38.557Z,35.35
2024-01-01T17:56:08.971Z,37.72
2024-01-01T17:58:38.266Z,37.90
2024-01-01T18:01:06.836Z,36.80
2024-01-01T18:03:35.145Z,37.07
2024-01-01T18:06:03.749Z,35.58
2024-01-01T18:08:32.780Z,37.08
2024-01-01T18:11:02.695Z,36.78
2024-01-01T18:13:32.329Z,37.63
2024-01-01T18:16:01.806Z,38.67
2024-01-01T18:18:30.105Z,35.20
2024-01-01T18:20:58.648Z,36.20
2024-01-01T18:23:26.806Z,37.92
2024-01-01T18:25:54.987Z,37.72
2024-01-01T18:28:23.176Z,35.90
2024-01-01T18:30:54.412Z,36.50
2024-01-01T18:33:22.847Z,38.72
2024-01-01T18:35:51.002Z,37.33
2024-01-01T18:38:19.261Z,37.03
2024-01-01T18:40:49.061Z,35.20
2024-01-01T18:43:20.268Z,37.00
2024-01-01T18:45:48.536Z,36.10
2024-01-01T18:48:18.319Z,36.40
2024-01-01T18:50:46.812Z,36.22
2024-01-01T18:53:17.423Z,37.22
2024-01-01T18:55:46.628Z,37.07
2024-01-01T18:58:14.920Z,35.13
2024-01-01T19:00:43.209Z,35.03
2024-01-01T19:03:11.847Z,35.42
2024-01-01T19:05:41.566Z,35.50
2024-01-01T19:08:10.649Z,36.22
2024-01-01T19:10:38.812Z,37.03
2024-01-01T19:13:07.334Z,34.88
2024-01-01T19:15:39.093Z,37.40
2024-01-01T19:18:08.444Z,37.08
2024-01-01T19:20:39.056Z,36.77
2024-01-01T19:23:09.014Z,36.55
2024-01-01T19:25:37.447Z,38.90
2024-01-01T19:28:06.234Z,34.83
2024-01-01T19:30:34.384Z,36.75
2024-01-01T19:33:02.714Z,36.65
2024-01-01T19:35:31.027Z,37.97
2024-01-01T19:37:59.750Z,36.15
2024-01-01T19:40:29.356Z,33.45
2024-01-01T19:42:57.555Z,35.08
2024-01-01T19:45:26.692Z,33.65
2024-01-01T19:47:55.201Z,35.47
2024-01-01T19:50:23.704Z,33.72
2024-01-01T19:52:52.070Z,34.20
2024-01-01T19:55:20.325Z,33.92
2024-01-01T19:57:49.857Z,33.80
2024-01-01T20:00:18.848Z,32.33
2024-01-01T20:02:46.137Z,34.30
2024-01-01T20:05:14.323Z,31.17
2024-01-01T20:07:42.554Z,33.67
2024-01-01T20:10:11.030Z,33.08
2024-01-01T20:12:39.171Z,33.30
2024-01-01T20:15:09.246Z,31.92
2024-01-01T20:17:39.661Z,31.90
2024-01-01T20:20:09.755Z,31.60
2024-01-01T20:22:38.014Z,31.27
2024-01-01T20:25:06.912Z,30.38
2024-01-01T20:27:35.014Z,31.37
2024-01-01T20:30:03.286Z,28.02
2024-01-01T20:32:32.893Z,31.02
2024-01-01T20:35:01.374Z,28.50
2024-01-01T20:37:29.621Z,28.67
2024-01-01T20:39:57.708Z,29.27
2024-01-01T20:42:25.878Z,27.13
2024-01-01T20:44:54.021Z,27.98
2024-01-01T20:47:22.145Z,27.60
2024-01-01T20:49:52.979Z,26.42
2024-01-01T20:52:26.753Z,25.17
2024-01-01T20:54:56.788Z,26.35
2024-01-01T20:57:25.084Z,25.27
2024-01-01T20:59:53.412Z,24.95
2024-01-01T21:02:22.680Z,24.08
2024-01-01T21:04:52.249Z,23.50
2024-01-01T21:07:20.358Z,25.20
2024-01-01T21:09:48.712Z,24.85
2024-01-01T21:12:16.971Z,26.27
2024-01-01T21:14:45.238Z,26.58
2024-01-01T21:17:13.447Z,26.38
2024-01-01T21:19:41.864Z,26.55
2024-01-01T21:22:11.375Z,25.83
2024-01-01T21:24:38.548Z,25.60
2024-01-01T21:27:06.970Z,24.85
2024-01-01T21:29:35.284Z,24.52
2024-01-01T21:32:03.555Z,23.83
2024-01-01T21:34:31.807Z,23.85
2024-01-01T21:37:00.095Z,23.27
2024-01-01T21:39:29.793Z,22.88
2024-01-01T21:41:58.110Z,23.80
2024-01-01T21:44:26.278Z,23.02
2024-01-01T21:46:54.497Z,23.92
2024-01-01T21:49:22.703Z,24.23
2024-01-01T21:51:50.876Z,23.33
2024-01-01T21:54:18.988Z,23.33
2024-01-01T21:56:48.483Z,23.30
2024-01-01T21:59:16.695Z,23.23
2024-01-01T22:01:46.086Z,21.85
2024-01-01T22:04:14.416Z,22.67
2024-01-01T22:06:43.735Z,21.20
2024-01-01T22:09:11.900Z,22.50
2024-01-01T22:11:40.052Z,21.27
2024-01-01T22:14:09.676Z,20.98
2024-01-01T22:16:41.387Z,19.70
2024-01-01T22:19:09.567Z,19.98
2024-01-01T22:21:38.641Z,20.45
2024-01-01T22:24:08.211Z,20.08
2024-01-01T22:26:36.721Z,20.17
2024-01-01T22:29:05.341Z,19.75
2024-01-01T22:31:40.515Z,19.65
2024-01-01T22:34:09.069Z,18.60
2024-01-01T22:36:37.236Z,19.23
2024-01-01T22:39:05.491Z,17.92
2024-01-01T22:41:33.600Z,17.38
2024-01-01T22:44:01.915Z,18.33
2024-01-01T22:46:30.038Z,18.15
2024-01-01T22:48:59.744Z,19.13
2024-01-01T22:51:27.887Z,18.95
2024-01-01T22:53:56.028Z,18.77
2024-01-01T22:56:24.213Z,18.50
2024-01-01T22:58:52.351Z,18.95
2024-01-01T23:01:20.840Z,18.17
2024-01-01T23:03:49.081Z,19.30
2024-01-01T23:06:18.679Z,19.38
2024-01-01T23:08:46.837Z,19.38
2024-01-01T23:11:15.067Z,18.40
2024-01-01T23:13:43.274Z,18.60
2024-01-01T23:16:11.518Z,18.45
2024-01-01T23:18:39.708Z,18.35
2024-01-01T23:21:07.999Z,17.40
2024-01-01T23:23:37.630Z,18.23
2024-01-01T23:26:05.929Z,17.77
2024-01-01T23:28:35.099Z,18.23
2024-01-01T23:31:03.382Z,18.85
2024-01-01T23:33:31.547Z,17.90
2024-01-01T23:36:00.105Z,19.27
2024-01-01T23:38:28.458Z,18.38
2024-01-01T23:40:58.070Z,18.55
2024-01-01T23:43:26.503Z,18.00
2024-01-01T23:45:55.049Z,18.08
2024-01-01T23:48:24.796Z,18.02
2024-01-01T23:50:53.329Z,19.08
2024-01-01T23:53:21.838Z,18.27
2024-01-01T23:55:50.470Z,17.63
2024-01-01T23:58:22.679Z,17.45
